createdAt,value
2023-04-18T00:01:26.886Z,12.48
2023-04-18T00:03:54.803Z,12.07
2023-04-18T00:06:24.174Z,11.68
2023-04-18T00:08:51.879Z,11.67
2023-04-18T00:11:19.673Z,10.93
2023-04-18T00:13:48.267Z,11.63
2023-04-18T00:16:16.392Z,10.93
2023-04-18T00:18:44.243Z,10.05
2023-04-18T00:21:13.487Z,10.70
2023-04-18T00:23:43.199Z,10.40
2023-04-18T00:26:10.975Z,10.30
2023-04-18T00:28:38.964Z,10.23
2023-04-18T00:31:06.806Z,9.98
2023-04-18T00:33:35.240Z,10.80
2023-04-18T00:36:03.382Z,9.85
2023-04-18T00:38:31.243Z,10.07
2023-04-18T00:41:00.378Z,10.07
2023-04-18T00:43:28.450Z,10.13
2023-04-18T00:45:57.251Z,9.35
2023-04-18T00:50:54.163Z,9.00
2023-04-18T00:55:49.846Z,8.90
2023-04-18T00:58:19.057Z,8.68
2023-04-18T01:00:47.649Z,8.27
2023-04-18T01:03:15.572Z,8.82
2023-04-18T01:05:43.453Z,8.93
2023-04-18T01:08:12.108Z,7.90
2023-04-18T01:10:40.085Z,8.40
2023-04-18T01:13:12.441Z,8.85
2023-04-18T01:15:43.494Z,7.87
2023-04-18T01:18:11.816Z,8.00
2023-04-18T01:20:42.549Z,8.40
2023-04-18T01:23:11.559Z,8.10
2023-04-18T01:25:41.005Z,7.93
2023-04-18T01:28:08.928Z,8.03
2023-04-18T01:30:37.059Z,8.05
2023-04-18T01:33:06.379Z,7.47
2023-04-18T01:35:34.648Z,7.70
2023-04-18T01:38:02.945Z,8.10
2023-04-18T01:40:31.348Z,8.70
2023-04-18T01:43:00.664Z,7.55
2023-04-18T01:45:29.090Z,7.83
2023-04-18T01:47:56.886Z,7.97
2023-04-18T01:50:24.722Z,8.03
2023-04-18T01:52:52.453Z,8.25
2023-04-18T01:55:20.397Z,8.20
2023-04-18T01:57:48.167Z,8.20
2023-04-18T02:00:18.122Z,7.90
2023-04-18T02:02:46.036Z,8.67
2023-04-18T02:05:13.926Z,7.93
2023-04-18T02:07:42.755Z,8.10
2023-04-18T02:12:39.558Z,8.15
2023-04-18T02:15:08.454Z,8.13
2023-04-18T02:20:08.320Z,8.57
2023-04-18T02:22:37.616Z,8.30
2023-04-18T02:25:05.765Z,8.50
2023-04-18T02:27:33.909Z,8.43
2023-04-18T02:30:01.760Z,8.85
2023-04-18T02:32:29.597Z,9.27
2023-04-18T02:34:58.757Z,8.32
2023-04-18T02:37:26.747Z,8.40
2023-04-18T02:39:54.701Z,8.73
2023-04-18T02:42:22.488Z,8.05
2023-04-18T02:44:50.257Z,9.40
2023-04-18T02:47:17.990Z,9.10
2023-04-18T02:49:46.089Z,8.23
2023-04-18T02:52:15.445Z,8.10
2023-04-18T02:54:43.172Z,8.73
2023-04-18T02:57:10.888Z,8.77
2023-04-18T02:59:38.843Z,8.60
2023-04-18T03:02:06.734Z,8.80
2023-04-18T03:04:34.466Z,9.10
2023-04-18T03:07:02.597Z,8.90
2023-04-18T03:09:31.680Z,8.85
2023-04-18T03:11:59.399Z,9.03
2023-04-18T03:14:27.602Z,8.93
2023-04-18T03:16:55.777Z,8.60
2023-04-18T03:19:23.494Z,8.60
2023-04-18T03:21:51.309Z,8.87
2023-04-18T03:24:19.113Z,9.25
2023-04-18T03:26:48.230Z,8.93
2023-04-18T03:29:16.249Z,8.70
2023-04-18T03:31:44.176Z,9.70
2023-04-18T03:34:12.627Z,9.25
2023-04-18T03:36:40.524Z,9.20
2023-04-18T03:39:08.362Z,9.33
2023-04-18T03:41:36.039Z,9.85
2023-04-18T03:44:05.366Z,9.73
2023-04-18T03:46:33.166Z,9.30
2023-04-18T03:49:01.017Z,9.88
2023-04-18T03:51:31.300Z,9.43
2023-04-18T03:53:59.670Z,9.30
2023-04-18T03:56:28.020Z,9.30
2023-04-18T03:58:55.792Z,9.75
2023-04-18T04:01:24.896Z,8.93
2023-04-18T04:03:52.811Z,9.23
2023-04-18T04:06:20.802Z,9.95
2023-04-18T04:08:48.540Z,9.33
2023-04-18T04:11:17.857Z,9.40
2023-04-18T04:13:45.717Z,8.93
2023-04-18T04:16:13.648Z,10.45
2023-04-18T04:18:42.894Z,9.88
2023-04-18T04:21:10.781Z,10.20
2023-04-18T04:23:38.495Z,9.98
2023-04-18T04:26:06.649Z,10.50
2023-04-18T04:28:36.306Z,10.82
2023-04-18T04:31:06.843Z,9.90
2023-04-18T04:33:35.930Z,10.60
2023-04-18T04:36:05.704Z,9.63
2023-04-18T04:38:33.872Z,10.37
2023-04-18T04:41:01.728Z,10.55
2023-04-18T04:43:29.691Z,9.45
2023-04-18T04:45:57.798Z,10.32
2023-04-18T04:48:25.747Z,10.93
2023-04-18T04:50:54.604Z,10.48
2023-04-18T04:55:53.100Z,10.47
2023-04-18T04:58:20.975Z,9.93
2023-04-18T05:00:50.753Z,10.80
2023-04-18T05:03:18.657Z,11.73
2023-04-18T05:05:46.778Z,10.40
2023-04-18T05:08:14.671Z,10.93
2023-04-18T05:10:44.425Z,10.52
2023-04-18T05:13:12.144Z,10.27
2023-04-18T05:15:40.468Z,10.93
2023-04-18T05:18:08.562Z,10.55
2023-04-18T05:20:36.551Z,10.63
2023-04-18T05:23:04.292Z,10.50
2023-04-18T05:25:33.605Z,10.40
2023-04-18T05:28:04.585Z,11.23
2023-04-18T05:30:32.369Z,10.87
2023-04-18T05:33:00.185Z,11.07
2023-04-18T05:35:28.309Z,11.17
2023-04-18T05:37:56.046Z,10.48
2023-04-18T05:40:23.877Z,11.20
2023-04-18T05:42:51.645Z,10.68
2023-04-18T05:45:20.864Z,10.27
2023-04-18T05:47:48.580Z,10.00
2023-04-18T05:50:16.693Z,10.83
2023-04-18T05:52:44.382Z,10.45
2023-04-18T05:55:12.291Z,10.47
2023-04-18T05:57:40.533Z,9.73
2023-04-18T06:00:11.546Z,10.80
2023-04-18T06:02:40.888Z,10.83
2023-04-18T06:05:10.025Z,10.40
2023-04-18T06:07:38.052Z,11.27
2023-04-18T06:10:09.261Z,10.38
2023-04-18T06:12:36.973Z,10.30
2023-04-18T06:15:05.691Z,10.90
2023-04-18T06:17:34.398Z,10.50
2023-04-18T06:20:05.576Z,10.95
2023-04-18T06:22:33.925Z,11.10
2023-04-18T06:25:01.661Z,10.98
2023-04-18T06:27:31.390Z,10.90
2023-04-18T06:29:59.974Z,10.33
2023-04-18T06:32:28.107Z,11.25
2023-04-18T06:34:55.894Z,11.13
2023-04-18T06:37:25.651Z,11.13
2023-04-18T06:39:53.485Z,10.90
2023-04-18T06:42:22.572Z,10.93
2023-04-18T06:44:50.928Z,10.97
2023-04-18T06:47:18.899Z,10.77
2023-04-18T06:49:46.678Z,10.45
2023-04-18T06:52:14.499Z,10.00
2023-04-18T06:54:43.610Z,10.27
2023-04-18T06:57:11.642Z,10.77
2023-04-18T06:59:41.260Z,10.43
2023-04-18T07:02:09.139Z,11.03
2023-04-18T07:04:36.954Z,9.82
2023-04-18T07:07:05.419Z,10.30
2023-04-18T07:09:33.184Z,9.18
2023-04-18T07:12:02.329Z,9.63
2023-04-18T07:14:31.698Z,9.40
2023-04-18T07:17:00.946Z,9.90
2023-04-18T07:19:29.174Z,8.85
2023-04-18T07:21:56.899Z,9.65
2023-04-18T07:24:24.694Z,9.80
2023-04-18T07:26:54.804Z,9.32
2023-04-18T07:29:24.257Z,9.77
2023-04-18T07:31:52.273Z,8.90
2023-04-18T07:34:20.040Z,9.00
2023-04-18T07:36:47.828Z,8.50
2023-04-18T07:39:15.664Z,9.00
2023-04-18T07:41:43.383Z,8.57
2023-04-18T07:44:11.438Z,7.93
2023-04-18T07:46:40.965Z,8.23
2023-04-18T07:49:08.765Z,8.83
2023-04-18T07:51:36.596Z,9.20
2023-04-18T07:54:04.327Z,8.48
2023-04-18T07:56:32.304Z,8.93
2023-04-18T07:59:00.020Z,8.63
2023-04-18T08:01:28.150Z,8.77
2023-04-18T08:04:01.472Z,8.80
2023-04-18T08:06:30.322Z,8.70
2023-04-18T08:08:59.005Z,8.40
2023-04-18T08:13:54.917Z,8.15
2023-04-18T08:16:22.756Z,8.87
2023-04-18T08:18:50.592Z,9.27
2023-04-18T08:21:20.039Z,9.33
2023-04-18T08:23:48.036Z,8.43
2023-04-18T08:26:15.889Z,8.43
2023-04-18T08:28:46.358Z,8.52
2023-04-18T08:31:15.169Z,8.07
2023-04-18T08:33:43.235Z,8.25
2023-04-18T08:36:12.065Z,8.32
2023-04-18T08:38:41.283Z,7.73
2023-04-18T08:41:09.899Z,8.53
2023-04-18T08:46:07.947Z,7.83
2023-04-18T08:48:37.115Z,8.13
2023-04-18T08:51:06.382Z,8.70
2023-04-18T08:53:35.309Z,8.90
2023-04-18T08:56:05.444Z,8.10
2023-04-18T08:58:34.839Z,8.27
2023-04-18T09:01:03.308Z,9.10
2023-04-18T09:03:40.072Z,8.43
2023-04-18T09:06:14.168Z,8.57
2023-04-18T09:08:44.526Z,8.63
2023-04-18T09:11:26.012Z,8.67
2023-04-18T09:13:56.236Z,8.83
2023-04-18T09:16:24.876Z,8.50
2023-04-18T09:19:13.883Z,7.73
2023-04-18T09:21:44.534Z,8.43
2023-04-18T09:24:23.806Z,8.90
2023-04-18T09:26:55.862Z,8.27
2023-04-18T09:29:24.390Z,8.43
2023-04-18T09:32:01.136Z,8.35
2023-04-18T09:34:30.131Z,8.60
2023-04-18T09:39:36.430Z,8.02
2023-04-18T09:42:05.729Z,7.13
2023-04-18T09:44:33.777Z,8.13
2023-04-18T09:47:01.922Z,7.70
2023-04-18T09:49:30.062Z,7.50
2023-04-18T09:51:57.846Z,6.53
2023-04-18T09:54:26.830Z,5.97
2023-04-18T09:56:56.290Z,6.93
2023-04-18T09:59:38.645Z,7.00
2023-04-18T10:02:08.816Z,7.90
2023-04-18T10:04:37.100Z,8.37
2023-04-18T10:07:05.320Z,8.20
2023-04-18T10:09:36.725Z,8.23
2023-04-18T10:12:05.000Z,8.50
2023-04-18T10:14:35.208Z,8.73
2023-04-18T10:17:03.162Z,8.03
2023-04-18T10:19:31.820Z,6.63
2023-04-18T10:24:48.083Z,7.87
2023-04-18T10:27:16.566Z,9.10
2023-04-18T10:29:50.335Z,8.13
2023-04-18T10:32:19.018Z,8.00
2023-04-18T10:37:16.185Z,7.68
2023-04-18T10:39:57.311Z,9.00
2023-04-18T10:42:59.348Z,6.70
2023-04-18T10:45:31.362Z,6.17
2023-04-18T10:48:25.087Z,6.43
2023-04-18T10:51:18.633Z,6.83
2023-04-18T10:53:51.608Z,6.40
2023-04-18T10:56:19.531Z,5.97
2023-04-18T10:58:52.053Z,5.80
2023-04-18T11:01:31.724Z,6.30
2023-04-18T11:04:01.495Z,6.10
2023-04-18T11:06:31.177Z,6.93
2023-04-18T11:09:11.668Z,7.40
2023-04-18T11:11:39.485Z,8.33
2023-04-18T11:14:07.229Z,8.90
2023-04-18T11:16:37.102Z,8.48
2023-04-18T11:19:20.209Z,8.83
2023-04-18T11:21:48.126Z,8.60
2023-04-18T11:24:23.974Z,8.50
2023-04-18T11:26:53.634Z,7.10
2023-04-18T11:29:21.276Z,6.82
2023-04-18T11:31:55.266Z,6.85
2023-04-18T11:34:30.147Z,6.47
2023-04-18T11:36:58.061Z,7.63
2023-04-18T11:39:25.947Z,7.40
2023-04-18T11:41:56.094Z,6.72
2023-04-18T11:44:25.886Z,7.20
2023-04-18T11:46:55.520Z,7.53
2023-04-18T11:49:27.850Z,7.33
2023-04-18T11:51:55.868Z,8.20
2023-04-18T11:54:40.499Z,8.05
2023-04-18T11:57:19.236Z,7.63
2023-04-18T11:59:49.998Z,7.67
2023-04-18T12:02:19.960Z,8.17
2023-04-18T12:04:53.291Z,7.90
2023-04-18T12:07:36.334Z,8.00
2023-04-18T12:10:05.689Z,8.27
2023-04-18T12:12:33.547Z,8.60
2023-04-18T12:15:03.001Z,8.20
2023-04-18T12:17:32.487Z,7.80
2023-04-18T12:20:05.499Z,8.43
2023-04-18T12:22:41.961Z,8.70
2023-04-18T12:25:27.171Z,8.43
2023-04-18T12:27:58.346Z,8.77
2023-04-18T12:30:28.483Z,8.40
2023-04-18T12:33:04.902Z,8.57
2023-04-18T12:35:33.379Z,9.00
2023-04-18T12:38:02.817Z,8.77
2023-04-18T12:40:31.400Z,8.33
2023-04-18T12:45:28.925Z,8.40
2023-04-18T12:47:58.135Z,8.90
2023-04-18T12:50:27.861Z,8.70
2023-04-18T12:52:58.325Z,8.87
2023-04-18T12:55:27.597Z,9.23
2023-04-18T12:57:58.384Z,9.43
2023-04-18T13:00:29.864Z,8.83
2023-04-18T13:03:01.121Z,9.23
2023-04-18T13:05:33.539Z,10.40
2023-04-18T13:10:35.199Z,10.97
2023-04-18T13:13:03.943Z,10.37
2023-04-18T13:15:31.654Z,10.87
2023-04-18T13:18:04.666Z,10.43
2023-04-18T13:20:33.237Z,10.73
2023-04-18T13:23:01.082Z,11.15
2023-04-18T13:25:29.047Z,11.05
2023-04-18T13:27:58.300Z,11.23
2023-04-18T13:30:26.475Z,10.90
2023-04-18T13:32:55.024Z,10.50
2023-04-18T13:37:51.843Z,9.73
2023-04-18T13:40:19.762Z,9.82
2023-04-18T13:42:47.531Z,10.07
2023-04-18T13:45:15.922Z,10.30
2023-04-18T13:47:43.709Z,10.27
2023-04-18T13:50:11.976Z,9.70
2023-04-18T13:52:41.106Z,9.73
2023-04-18T13:55:10.536Z,10.35
2023-04-18T13:57:38.262Z,9.75
2023-04-18T14:00:09.212Z,9.82
2023-04-18T14:02:37.127Z,9.35
2023-04-18T14:05:05.740Z,9.43
2023-04-18T14:07:33.629Z,9.52
2023-04-18T14:10:02.744Z,10.02
2023-04-18T14:12:31.336Z,9.15
2023-04-18T14:17:27.279Z,9.50
2023-04-18T14:19:55.083Z,8.85
2023-04-18T14:22:22.853Z,9.00
2023-04-18T14:24:52.345Z,8.40
2023-04-18T14:27:21.495Z,8.70
2023-04-18T14:29:49.473Z,9.07
2023-04-18T14:32:17.247Z,9.27
2023-04-18T14:34:45.177Z,10.00
2023-04-18T14:37:13.163Z,9.77
2023-04-18T14:39:41.892Z,10.05
2023-04-18T14:42:09.661Z,9.95
2023-04-18T14:44:38.865Z,9.48
2023-04-18T14:47:06.698Z,10.23
2023-04-18T14:49:34.614Z,9.68
2023-04-18T14:52:02.338Z,10.45
2023-04-18T14:54:32.078Z,9.63
2023-04-18T14:57:01.519Z,9.97
2023-04-18T14:59:29.216Z,9.50
2023-04-18T15:02:09.357Z,9.50
2023-04-18T15:07:59.522Z,9.80
2023-04-18T15:10:56.445Z,9.10
2023-04-18T15:13:25.285Z,8.45
2023-04-18T15:15:54.345Z,9.18
2023-04-18T15:18:24.149Z,9.15
2023-04-18T15:20:53.715Z,10.27
2023-04-18T15:23:21.465Z,9.95
2023-04-18T15:25:49.423Z,10.02
2023-04-18T15:28:18.279Z,9.10
2023-04-18T15:30:47.050Z,9.27
2023-04-18T15:33:15.960Z,9.33
2023-04-18T15:35:45.091Z,8.67
2023-04-18T15:38:12.936Z,9.05
2023-04-18T15:40:40.896Z,9.05
2023-04-18T15:43:08.686Z,8.50
2023-04-18T15:45:36.961Z,7.82
2023-04-18T15:48:05.001Z,8.43
2023-04-18T15:50:33.818Z,8.15
2023-04-18T15:53:03.500Z,8.88
2023-04-18T15:55:31.329Z,8.27
2023-04-18T15:57:59.074Z,8.40
2023-04-18T16:00:27.495Z,8.43
2023-04-18T16:05:23.186Z,8.20
2023-04-18T16:07:52.373Z,8.65
2023-04-18T16:10:21.855Z,8.25
2023-04-18T16:12:49.621Z,7.90
2023-04-18T16:15:17.453Z,7.55
2023-04-18T16:17:45.482Z,7.93
2023-04-18T16:20:13.784Z,7.53
2023-04-18T16:22:41.562Z,8.02
2023-04-18T16:25:10.636Z,8.40
2023-04-18T16:27:39.809Z,7.72
2023-04-18T16:30:10.003Z,7.15
2023-04-18T16:32:38.369Z,8.32
2023-04-18T16:35:07.880Z,7.72
2023-04-18T16:37:35.658Z,8.37
2023-04-18T16:40:05.763Z,8.80
2023-04-18T16:42:33.574Z,7.73
2023-04-18T16:45:04.204Z,8.30
2023-04-18T16:47:32.414Z,8.47
2023-04-18T16:50:00.842Z,8.55
2023-04-18T16:52:29.183Z,8.50
2023-04-18T16:54:56.950Z,8.30
2023-04-18T16:57:24.776Z,8.25
2023-04-18T16:59:52.569Z,7.85
2023-04-18T17:02:21.796Z,8.15
2023-04-18T17:04:49.912Z,7.87
2023-04-18T17:07:17.780Z,7.55
2023-04-18T17:09:45.596Z,8.30
2023-04-18T17:12:13.422Z,9.18
2023-04-18T17:14:41.198Z,8.77
2023-04-18T17:17:09.016Z,11.35
2023-04-18T17:19:38.258Z,8.80
2023-04-18T17:22:06.174Z,8.50
2023-04-18T17:24:34.036Z,8.40
2023-04-18T17:27:01.765Z,8.00
2023-04-18T17:29:29.505Z,7.90
2023-04-18T17:31:57.395Z,7.57
2023-04-18T17:34:25.589Z,7.53
2023-04-18T17:36:54.850Z,8.38
2023-04-18T17:39:22.765Z,7.93
2023-04-18T17:41:50.950Z,8.20
2023-04-18T17:44:18.893Z,7.20
2023-04-18T17:46:48.226Z,7.88
2023-04-18T17:49:16.861Z,8.20
2023-04-18T17:51:44.599Z,7.68
2023-04-18T17:54:14.114Z,7.03
2023-04-18T17:56:42.007Z,7.80
2023-04-18T17:59:09.894Z,7.72
2023-04-18T18:01:38.701Z,7.30
2023-04-18T18:04:06.923Z,7.50
2023-04-18T18:06:34.887Z,7.68
2023-04-18T18:09:02.920Z,7.63
2023-04-18T18:11:32.096Z,8.00
2023-04-18T18:14:00.492Z,7.57
2023-04-18T18:16:28.639Z,8.45
2023-04-18T18:18:56.727Z,7.70
2023-04-18T18:21:24.456Z,7.68
2023-04-18T18:23:52.458Z,7.30
2023-04-18T18:26:20.488Z,8.05
2023-04-18T18:28:50.323Z,7.70
2023-04-18T18:31:22.674Z,8.77
2023-04-18T18:33:50.573Z,7.63
2023-04-18T18:36:18.927Z,8.50
2023-04-18T18:38:47.475Z,7.78
2023-04-18T18:41:15.862Z,8.30
2023-04-18T18:43:44.299Z,7.53
2023-04-18T18:46:16.035Z,7.47
2023-04-18T18:48:44.446Z,7.43
2023-04-18T18:51:21.581Z,8.93
2023-04-18T18:53:49.858Z,8.03
2023-04-18T18:56:18.440Z,7.57
2023-04-18T18:58:46.559Z,7.78
2023-04-18T19:01:16.089Z,7.38
2023-04-18T19:03:44.014Z,7.47
2023-04-18T19:06:12.212Z,8.25
2023-04-18T19:08:40.283Z,8.02
2023-04-18T19:11:09.019Z,7.90
2023-04-18T19:16:06.651Z,7.63
2023-04-18T19:18:36.953Z,7.90
2023-04-18T19:21:05.803Z,8.43
2023-04-18T19:23:33.751Z,9.60
2023-04-18T19:26:01.568Z,8.93
2023-04-18T19:28:29.541Z,9.32
2023-04-18T19:30:57.560Z,8.90
2023-04-18T19:33:27.487Z,9.27
2023-04-18T19:35:56.754Z,9.00
2023-04-18T19:38:24.998Z,9.47
2023-04-18T19:40:52.960Z,9.00
2023-04-18T19:43:22.951Z,9.70
2023-04-18T19:45:55.013Z,9.30
2023-04-18T19:48:23.592Z,9.80
2023-04-18T19:50:52.633Z,9.15
2023-04-18T19:53:23.578Z,9.77
2023-04-18T19:55:53.740Z,8.70
2023-04-18T19:58:46.916Z,8.97
2023-04-18T20:01:16.481Z,8.67
2023-04-18T20:03:44.717Z,8.53
2023-04-18T20:06:12.901Z,8.95
2023-04-18T20:08:42.627Z,8.90
2023-04-18T20:11:14.633Z,8.77
2023-04-18T20:13:42.595Z,9.00
2023-04-18T20:16:11.208Z,8.55
2023-04-18T20:18:41.568Z,7.82
2023-04-18T20:21:11.411Z,7.77
2023-04-18T20:23:40.471Z,8.57
2023-04-18T20:26:10.374Z,7.80
2023-04-18T20:28:38.711Z,8.80
2023-04-18T20:31:18.367Z,8.25
2023-04-18T20:33:46.494Z,7.97
2023-04-18T20:36:14.517Z,8.13
2023-04-18T20:38:44.362Z,7.95
2023-04-18T20:41:18.609Z,7.90
2023-04-18T20:43:46.895Z,7.97
2023-04-18T20:46:16.238Z,8.43
2023-04-18T20:48:44.459Z,8.67
2023-04-18T20:51:12.380Z,7.50
2023-04-18T20:53:40.071Z,8.13
2023-04-18T20:56:07.945Z,8.23
2023-04-18T20:58:37.127Z,8.10
2023-04-18T21:01:05.208Z,7.83
2023-04-18T21:03:33.246Z,7.75
2023-04-18T21:06:01.261Z,7.65
2023-04-18T21:08:29.131Z,7.50
2023-04-18T21:10:56.858Z,7.63
2023-04-18T21:13:24.722Z,7.83
2023-04-18T21:15:53.823Z,8.13
2023-04-18T21:18:21.524Z,7.90
2023-04-18T21:20:49.616Z,7.70
2023-04-18T21:23:17.502Z,7.90
2023-04-18T21:25:45.581Z,7.40
2023-04-18T21:28:13.574Z,7.82
2023-04-18T21:30:41.804Z,7.13
2023-04-18T21:33:11.571Z,7.97
2023-04-18T21:35:42.617Z,7.13
2023-04-18T21:38:10.737Z,6.77
2023-04-18T21:40:38.606Z,7.95
2023-04-18T21:43:06.891Z,7.00
2023-04-18T21:45:35.242Z,6.88
2023-04-18T21:48:03.530Z,7.15
2023-04-18T21:50:33.334Z,7.50
2023-04-18T21:53:01.083Z,7.53
2023-04-18T21:55:30.752Z,7.03
2023-04-18T21:57:59.057Z,7.17
2023-04-18T22:00:27.881Z,7.03
2023-04-18T22:05:24.081Z,6.75
2023-04-18T22:07:58.124Z,6.53
2023-04-18T22:10:27.489Z,6.87
2023-04-18T22:12:56.182Z,6.70
2023-04-18T22:17:52.329Z,6.78
2023-04-18T22:20:20.341Z,7.55
2023-04-18T22:22:48.395Z,7.00
2023-04-18T22:25:17.939Z,6.80
2023-04-18T22:27:46.532Z,6.57
2023-04-18T22:30:15.511Z,6.70
2023-04-18T22:32:45.620Z,6.87
2023-04-18T22:35:16.794Z,6.60
2023-04-18T22:37:45.246Z,6.83
2023-04-18T22:40:16.538Z,6.72
2023-04-18T22:42:46.346Z,7.40
2023-04-18T22:45:14.758Z,6.97
2023-04-18T22:47:43.075Z,6.45
2023-04-18T22:50:11.551Z,6.82
2023-04-18T22:52:39.785Z,6.85
2023-04-18T22:55:08.494Z,6.55
2023-04-18T22:57:36.484Z,7.47
2023-04-18T23:00:07.460Z,6.43
2023-04-18T23:02:35.620Z,7.00
2023-04-18T23:05:04.108Z,7.20
2023-04-18T23:07:32.031Z,6.75
2023-04-18T23:10:00.258Z,7.10
2023-04-18T23:12:30.920Z,7.03
2023-04-18T23:14:59.161Z,7.07
2023-04-18T23:17:28.755Z,7.28
2023-04-18T23:19:56.455Z,6.83
2023-04-18T23:22:24.741Z,6.93
2023-04-18T23:24:52.558Z,6.80
2023-04-18T23:27:20.342Z,7.20
2023-04-18T23:29:48.522Z,6.77
2023-04-18T23:32:16.323Z,7.25
2023-04-18T23:34:46.113Z,6.70
2023-04-18T23:37:13.866Z,7.73
2023-04-18T23:39:41.634Z,7.27
2023-04-18T23:42:09.662Z,6.53
2023-04-18T23:44:37.500Z,7.90
2023-04-18T23:47:05.325Z,6.63
2023-04-18T23:49:33.050Z,6.60
2023-04-18T23:52:02.885Z,6.60
2023-04-18T23:54:31.191Z,7.13
2023-04-18T23:56:58.936Z,7.78
2023-04-18T23:59:27.024Z,7.33
